Time;durP1;ratioP1;P1;durP2;ratioP2;P2;SDS_P1;SDS_P2;PMS_P1;PMS_P2;Temp;Humidity;BMP_temperature;BMP_pressure;BME280_temperature;BME280_humidity;BME280_pressure;Samples;Min_cycle;Max_cycle;Signal;HPM_P1;HPM_P2
2023/12/08 00:01:54;;;;;;;16.50;9.90;;;;;;;;;;4890557;29;20415;-75
2023/12/08 00:04:20;;;;;;;19.75;11.18;;;;;;;;;;4895769;29;20040;-75
2023/12/08 00:06:46;;;;;;;20.73;10.43;;;;;;;;;;4895769;29;20455;-75
2023/12/08 00:09:12;;;;;;;15.13;9.75;;;;;;;;;;4883596;29;20033;-75
2023/12/08 00:11:38;;;;;;;16.67;10.15;;;;;;;;;;4884088;29;20471;-75
2023/12/08 00:14:04;;;;;;;16.70;9.73;;;;;;;;;;4890315;29;20029;-75
2023/12/08 00:16:30;;;;;;;14.73;9.18;;;;;;;;;;4889347;29;20063;-75
2023/12/08 00:18:56;;;;;;;18.17;9.57;;;;;;;;;;4893207;29;20056;-76
2023/12/08 00:21:25;;;;;;;16.58;9.52;;;;;;;;;;4893937;29;20039;-77
2023/12/08 00:23:52;;;;;;;16.60;9.00;;;;;;;;;;4893190;29;20036;-76
2023/12/08 00:26:18;;;;;;;13.13;8.65;;;;;;;;;;4890753;29;20132;-76
2023/12/08 00:28:44;;;;;;;13.15;8.88;;;;;;;;;;4893703;29;20084;-76
2023/12/08 00:31:11;;;;;;;15.68;9.30;;;;;;;;;;4893113;29;20048;-76
2023/12/08 00:33:37;;;;;;;17.60;9.68;;;;;;;;;;4893778;29;20496;-76
2023/12/08 00:36:10;;;;;;;11.85;8.75;;;;;;;;;;4888950;29;20379;-76
2023/12/08 00:38:37;;;;;;;14.38;8.98;;;;;;;;;;4894587;29;20060;-76
2023/12/08 00:41:04;;;;;;;13.93;8.90;;;;;;;;;;4895149;29;20037;-76
2023/12/08 00:43:30;;;;;;;13.68;8.63;;;;;;;;;;4895357;29;20540;-76
2023/12/08 00:45:56;;;;;;;13.95;8.90;;;;;;;;;;4895344;29;20029;-76
2023/12/08 00:48:22;;;;;;;14.65;9.63;;;;;;;;;;4892817;29;20037;-75
2023/12/08 00:50:48;;;;;;;14.93;9.48;;;;;;;;;;4893101;29;20037;-76
2023/12/08 00:53:14;;;;;;;13.13;8.40;;;;;;;;;;4892455;29;20048;-75
2023/12/08 00:55:40;;;;;;;16.25;9.40;;;;;;;;;;4893591;29;20029;-76
2023/12/08 00:58:06;;;;;;;14.75;10.15;;;;;;;;;;4894535;29;20154;-75
2023/12/08 01:00:32;;;;;;;13.90;9.13;;;;;;;;;;4890871;29;20029;-76
2023/12/08 01:02:58;;;;;;;16.33;9.85;;;;;;;;;;4895392;29;20124;-75
2023/12/08 01:05:24;;;;;;;16.92;9.45;;;;;;;;;;4894006;29;20036;-75
2023/12/08 01:07:50;;;;;;;18.65;9.55;;;;;;;;;;4893071;29;20032;-75
2023/12/08 01:10:16;;;;;;;13.57;9.15;;;;;;;;;;4891463;29;20774;-76
2023/12/08 01:12:43;;;;;;;14.73;8.68;;;;;;;;;;4892201;29;20047;-76
2023/12/08 01:15:09;;;;;;;15.70;9.30;;;;;;;;;;4891111;29;20047;-75
2023/12/08 01:17:35;;;;;;;13.75;9.02;;;;;;;;;;4870567;29;20045;-73
2023/12/08 01:20:01;;;;;;;16.30;10.27;;;;;;;;;;4890880;29;20040;-74
2023/12/08 01:22:27;;;;;;;13.10;9.60;;;;;;;;;;4894036;29;20828;-73
2023/12/08 01:24:54;;;;;;;15.18;9.85;;;;;;;;;;4889917;29;20107;-74
2023/12/08 01:27:20;;;;;;;13.07;9.05;;;;;;;;;;4891592;29;20092;-74
2023/12/08 01:29:46;;;;;;;17.02;9.35;;;;;;;;;;4892241;29;20691;-74
2023/12/08 01:32:12;;;;;;;12.63;8.85;;;;;;;;;;4891589;29;20054;-73
2023/12/08 01:34:38;;;;;;;24.55;12.30;;;;;;;;;;4894387;29;20036;-75
2023/12/08 01:37:04;;;;;;;23.63;14.82;;;;;;;;;;4895253;29;20052;-73
2023/12/08 01:39:30;;;;;;;13.98;8.82;;;;;;;;;;4893351;29;20127;-73
2023/12/08 01:41:56;;;;;;;14.32;8.60;;;;;;;;;;4891307;29;20100;-75
2023/12/08 01:44:22;;;;;;;12.65;9.43;;;;;;;;;;4892104;29;20396;-74
2023/12/08 01:46:49;;;;;;;19.33;10.77;;;;;;;;;;4889889;29;20032;-74
2023/12/08 01:49:16;;;;;;;13.27;8.93;;;;;;;;;;4870586;29;20106;-75
2023/12/08 01:51:46;;;;;;;14.95;10.32;;;;;;;;;;4893636;29;20036;-75
2023/12/08 01:54:13;;;;;;;19.10;10.32;;;;;;;;;;4892268;29;20033;-75
2023/12/08 01:56:40;;;;;;;18.92;10.18;;;;;;;;;;4893842;29;20475;-75
2023/12/08 01:59:06;;;;;;;15.50;10.68;;;;;;;;;;4892700;29;20029;-74
2023/12/08 02:01:32;;;;;;;16.67;9.63;;;;;;;;;;4892225;29;20081;-75
2023/12/08 02:03:58;;;;;;;15.32;10.80;;;;;;;;;;4874549;29;20467;-75
2023/12/08 02:06:24;;;;;;;16.15;11.20;;;;;;;;;;4891979;29;20555;-74
2023/12/08 02:08:50;;;;;;;15.05;10.15;;;;;;;;;;4894855;29;20559;-74
2023/12/08 02:11:16;;;;;;;14.15;10.30;;;;;;;;;;4892849;29;20490;-75
2023/12/08 02:13:42;;;;;;;13.50;9.77;;;;;;;;;;4893703;29;20048;-74
2023/12/08 02:16:14;;;;;;;14.88;10.30;;;;;;;;;;4890237;29;20072;-75
2023/12/08 02:18:41;;;;;;;17.50;10.93;;;;;;;;;;4893574;29;20040;-75
2023/12/08 02:21:08;;;;;;;19.40;11.30;;;;;;;;;;4892471;29;20055;-75
2023/12/08 02:23:35;;;;;;;19.50;10.95;;;;;;;;;;4882397;29;20040;-75
2023/12/08 02:26:01;;;;;;;16.63;11.20;;;;;;;;;;4888925;29;20043;-75
2023/12/08 02:28:27;;;;;;;17.77;11.23;;;;;;;;;;4893292;29;20071;-75
2023/12/08 02:30:54;;;;;;;19.33;10.60;;;;;;;;;;4890857;29;20521;-75
2023/12/08 02:33:28;;;;;;;15.07;10.70;;;;;;;;;;4894092;29;20037;-75
2023/12/08 02:35:55;;;;;;;15.88;11.35;;;;;;;;;;4897869;29;20044;-74
2023/12/08 02:38:22;;;;;;;17.83;11.00;;;;;;;;;;4893522;29;20033;-75
2023/12/08 02:40:48;;;;;;;18.73;12.30;;;;;;;;;;4880836;29;20052;-74
2023/12/08 02:43:15;;;;;;;20.20;12.10;;;;;;;;;;4891763;29;20153;-75
2023/12/08 02:45:41;;;;;;;18.05;11.85;;;;;;;;;;4891884;29;20112;-74
2023/12/08 02:48:07;;;;;;;16.48;11.10;;;;;;;;;;4893398;29;20092;-74
2023/12/08 02:50:33;;;;;;;16.75;10.93;;;;;;;;;;4893492;29;20045;-74
2023/12/08 02:52:59;;;;;;;17.30;11.57;;;;;;;;;;4892531;29;20036;-75
2023/12/08 02:55:25;;;;;;;19.10;11.10;;;;;;;;;;4893179;29;20048;-74
2023/12/08 02:57:51;;;;;;;17.90;12.27;;;;;;;;;;4893626;29;20040;-74
2023/12/08 03:00:17;;;;;;;20.58;12.88;;;;;;;;;;4892693;29;20028;-74
2023/12/08 03:02:43;;;;;;;19.73;11.20;;;;;;;;;;4892332;29;20716;-74
2023/12/08 03:05:10;;;;;;;18.33;11.38;;;;;;;;;;4885520;29;20483;-75
2023/12/08 03:07:36;;;;;;;21.80;11.85;;;;;;;;;;4887074;29;20041;-75
2023/12/08 03:10:02;;;;;;;19.17;12.57;;;;;;;;;;4892161;29;20044;-74
2023/12/08 03:12:28;;;;;;;18.80;12.23;;;;;;;;;;4893868;29;20037;-75
2023/12/08 03:14:54;;;;;;;17.13;10.68;;;;;;;;;;4893280;29;20041;-74
2023/12/08 03:17:20;;;;;;;17.90;11.85;;;;;;;;;;4893354;29;20501;-74
2023/12/08 03:19:46;;;;;;;19.55;13.32;;;;;;;;;;4890804;29;20116;-74
2023/12/08 03:22:12;;;;;;;18.33;12.75;;;;;;;;;;4885246;29;20085;-74
2023/12/08 03:24:38;;;;;;;18.73;13.27;;;;;;;;;;4897822;29;20455;-74
2023/12/08 03:27:04;;;;;;;18.08;12.15;;;;;;;;;;4894554;29;20037;-74
2023/12/08 03:29:31;;;;;;;24.38;14.98;;;;;;;;;;4896913;29;20045;-76
2023/12/08 03:31:57;;;;;;;18.10;12.73;;;;;;;;;;4895762;29;20040;-75
2023/12/08 03:34:23;;;;;;;20.52;14.00;;;;;;;;;;4896457;29;20508;-75
2023/12/08 03:36:49;;;;;;;21.08;13.02;;;;;;;;;;4895176;29;20032;-75
2023/12/08 03:39:15;;;;;;;20.35;12.70;;;;;;;;;;4896284;29;20043;-75
2023/12/08 03:41:41;;;;;;;19.50;13.13;;;;;;;;;;4895908;29;20537;-75
2023/12/08 03:44:07;;;;;;;21.42;13.40;;;;;;;;;;4890497;29;20038;-74
2023/12/08 03:46:33;;;;;;;19.00;13.35;;;;;;;;;;4895983;29;20106;-75
2023/12/08 03:48:59;;;;;;;22.48;14.77;;;;;;;;;;4894817;29;20049;-75
2023/12/08 03:51:25;;;;;;;18.83;14.25;;;;;;;;;;4893413;29;20104;-75
2023/12/08 03:53:51;;;;;;;21.83;14.52;;;;;;;;;;4895111;29;20036;-75
2023/12/08 03:56:17;;;;;;;21.88;14.38;;;;;;;;;;4894478;29;20120;-76
2023/12/08 03:58:43;;;;;;;22.45;14.65;;;;;;;;;;4895134;29;20317;-74
2023/12/08 04:01:09;;;;;;;19.60;13.25;;;;;;;;;;4895348;29;20399;-75
2023/12/08 04:03:39;;;;;;;24.25;15.00;;;;;;;;;;4895397;29;20509;-76
2023/12/08 04:06:05;;;;;;;24.40;14.63;;;;;;;;;;4894353;29;20119;-76
2023/12/08 04:08:31;;;;;;;20.42;13.75;;;;;;;;;;4887562;29;20044;-76
2023/12/08 04:10:57;;;;;;;22.02;14.68;;;;;;;;;;4896146;29;20032;-76
2023/12/08 04:13:23;;;;;;;26.88;16.25;;;;;;;;;;4895618;29;20037;-75
2023/12/08 04:15:50;;;;;;;22.65;15.60;;;;;;;;;;4890547;29;20049;-76
2023/12/08 04:18:16;;;;;;;27.52;17.27;;;;;;;;;;4892126;29;20035;-74
2023/12/08 04:20:42;;;;;;;26.48;15.95;;;;;;;;;;4896025;29;20032;-75
2023/12/08 04:23:08;;;;;;;25.17;16.50;;;;;;;;;;4890836;29;20096;-75
2023/12/08 04:25:34;;;;;;;26.45;15.68;;;;;;;;;;4891183;29;20075;-75
2023/12/08 04:28:00;;;;;;;29.17;16.58;;;;;;;;;;4893673;29;20426;-76
2023/12/08 04:30:26;;;;;;;26.70;15.82;;;;;;;;;;4892205;29;20025;-76
2023/12/08 04:32:52;;;;;;;27.02;15.82;;;;;;;;;;4895073;29;20036;-77
2023/12/08 04:35:18;;;;;;;27.63;16.40;;;;;;;;;;4895374;29;20032;-76
2023/12/08 04:37:44;;;;;;;30.73;17.58;;;;;;;;;;4891865;29;20025;-76
2023/12/08 04:40:11;;;;;;;25.73;16.83;;;;;;;;;;4895177;29;20032;-76
2023/12/08 04:42:37;;;;;;;25.92;15.45;;;;;;;;;;4895422;29;20116;-75
2023/12/08 04:45:04;;;;;;;24.67;15.40;;;;;;;;;;4894877;29;20040;-77
2023/12/08 04:47:30;;;;;;;28.27;17.23;;;;;;;;;;4895707;29;20502;-76
2023/12/08 04:49:56;;;;;;;27.17;16.73;;;;;;;;;;4891857;29;20024;-74
2023/12/08 04:52:22;;;;;;;26.67;16.10;;;;;;;;;;4893816;29;20414;-74
2023/12/08 04:54:48;;;;;;;28.02;17.08;;;;;;;;;;4891870;29;20033;-76
2023/12/08 04:57:14;;;;;;;25.35;16.60;;;;;;;;;;4894641;29;20048;-74
2023/12/08 04:59:40;;;;;;;27.73;17.48;;;;;;;;;;4891431;29;20490;-75
2023/12/08 05:02:06;;;;;;;30.10;16.42;;;;;;;;;;4892200;29;20036;-76
2023/12/08 05:04:33;;;;;;;28.73;17.38;;;;;;;;;;4893521;29;20027;-74
2023/12/08 05:06:59;;;;;;;31.83;18.80;;;;;;;;;;4888196;29;20063;-75
2023/12/08 05:09:25;;;;;;;27.02;15.90;;;;;;;;;;4890624;29;20028;-73
2023/12/08 05:11:51;;;;;;;30.00;18.48;;;;;;;;;;4893099;29;20044;-75
2023/12/08 05:14:17;;;;;;;29.45;16.15;;;;;;;;;;4893223;29;20475;-76
2023/12/08 05:16:43;;;;;;;26.55;16.70;;;;;;;;;;4884192;29;20484;-76
2023/12/08 05:19:09;;;;;;;29.65;16.80;;;;;;;;;;4893265;29;20039;-76
2023/12/08 05:21:35;;;;;;;29.60;17.65;;;;;;;;;;4890668;29;20033;-76
2023/12/08 05:24:01;;;;;;;28.70;16.20;;;;;;;;;;4885827;29;20029;-77
2023/12/08 05:26:27;;;;;;;29.88;17.30;;;;;;;;;;4889446;29;20044;-74
2023/12/08 05:28:53;;;;;;;27.70;17.02;;;;;;;;;;4891852;29;20048;-77
2023/12/08 05:31:19;;;;;;;32.10;17.45;;;;;;;;;;4894005;29;20394;-75
2023/12/08 05:33:46;;;;;;;28.92;17.13;;;;;;;;;;4893559;29;20033;-76
2023/12/08 05:36:12;;;;;;;25.48;15.90;;;;;;;;;;4893738;29;20032;-76
2023/12/08 05:38:38;;;;;;;26.83;17.08;;;;;;;;;;4891357;29;20960;-76
2023/12/08 05:41:04;;;;;;;31.23;17.90;;;;;;;;;;4893865;29;20604;-76
2023/12/08 05:43:30;;;;;;;31.75;18.17;;;;;;;;;;4893305;29;20067;-75
2023/12/08 05:45:56;;;;;;;30.92;18.98;;;;;;;;;;4893921;29;20033;-76
2023/12/08 05:48:22;;;;;;;35.92;19.30;;;;;;;;;;4893694;29;20028;-76
2023/12/08 05:50:48;;;;;;;34.15;18.77;;;;;;;;;;4891899;29;20048;-76
2023/12/08 05:53:14;;;;;;;30.10;17.70;;;;;;;;;;4893859;29;20055;-76
2023/12/08 05:55:40;;;;;;;34.53;18.70;;;;;;;;;;4887104;29;20035;-76
2023/12/08 05:58:06;;;;;;;29.63;17.20;;;;;;;;;;4892781;29;20364;-76
2023/12/08 06:00:33;;;;;;;30.08;18.25;;;;;;;;;;4890436;29;20036;-76
2023/12/08 06:02:59;;;;;;;34.00;18.67;;;;;;;;;;4891363;29;20029;-76
2023/12/08 06:05:25;;;;;;;30.05;18.95;;;;;;;;;;4884954;29;20050;-76
2023/12/08 06:07:51;;;;;;;30.30;18.83;;;;;;;;;;4893545;29;20346;-76
2023/12/08 06:10:17;;;;;;;30.02;19.40;;;;;;;;;;4892340;29;20039;-76
2023/12/08 06:12:43;;;;;;;32.80;18.63;;;;;;;;;;4893009;29;20037;-76
2023/12/08 06:15:11;;;;;;;31.58;17.90;;;;;;;;;;4893725;29;20554;-77
2023/12/08 06:17:37;;;;;;;29.60;18.98;;;;;;;;;;4892693;29;20049;-77
2023/12/08 06:20:04;;;;;;;32.38;18.92;;;;;;;;;;4897003;29;20428;-77
2023/12/08 06:22:31;;;;;;;33.85;19.60;;;;;;;;;;4894732;29;20044;-76
2023/12/08 06:24:57;;;;;;;30.38;18.90;;;;;;;;;;4890071;29;20033;-76
2023/12/08 06:27:23;;;;;;;33.40;18.13;;;;;;;;;;4892029;29;20040;-77
2023/12/08 06:29:50;;;;;;;29.80;17.83;;;;;;;;;;4888541;29;20120;-79
2023/12/08 06:32:18;;;;;;;36.70;19.90;;;;;;;;;;4885572;29;20507;-77
2023/12/08 06:34:46;;;;;;;32.03;19.17;;;;;;;;;;4892496;29;20180;-78
2023/12/08 06:37:12;;;;;;;33.03;17.63;;;;;;;;;;4890170;29;20029;-79
2023/12/08 06:39:39;;;;;;;32.50;18.85;;;;;;;;;;4889473;29;20048;-78
2023/12/08 06:42:06;;;;;;;31.63;19.48;;;;;;;;;;4887774;29;20056;-74
2023/12/08 06:44:32;;;;;;;36.85;22.85;;;;;;;;;;4889233;29;20033;-78
2023/12/08 06:46:58;;;;;;;36.40;19.75;;;;;;;;;;4882574;29;20032;-80
2023/12/08 06:49:24;;;;;;;34.35;19.38;;;;;;;;;;4889768;29;20501;-78
2023/12/08 06:51:50;;;;;;;36.28;19.10;;;;;;;;;;4885316;29;20036;-77
2023/12/08 06:54:16;;;;;;;35.55;19.33;;;;;;;;;;4886829;29;20036;-78
2023/12/08 06:56:42;;;;;;;33.70;19.65;;;;;;;;;;4888578;29;20411;-78
2023/12/08 06:59:09;;;;;;;33.50;19.42;;;;;;;;;;4890261;29;20025;-75
2023/12/08 07:01:35;;;;;;;35.78;20.90;;;;;;;;;;4891792;29;20447;-77
2023/12/08 07:04:03;;;;;;;29.55;18.52;;;;;;;;;;4891808;29;20021;-78
2023/12/08 07:06:29;;;;;;;32.42;20.40;;;;;;;;;;4897605;29;20029;-75
2023/12/08 07:08:55;;;;;;;32.25;19.65;;;;;;;;;;4893990;29;20127;-76
2023/12/08 07:11:22;;;;;;;37.03;20.33;;;;;;;;;;4895544;29;20032;-75
2023/12/08 07:13:48;;;;;;;39.78;20.27;;;;;;;;;;4896314;29;20032;-75
2023/12/08 07:16:14;;;;;;;30.70;18.27;;;;;;;;;;4894526;29;20082;-75
2023/12/08 07:18:41;;;;;;;34.13;19.35;;;;;;;;;;4889245;29;20045;-75
2023/12/08 07:21:07;;;;;;;39.47;21.88;;;;;;;;;;4881806;29;20514;-76
2023/12/08 07:23:33;;;;;;;37.05;20.33;;;;;;;;;;4892086;29;20036;-77
2023/12/08 07:25:59;;;;;;;33.30;20.48;;;;;;;;;;4889421;29;20026;-78
2023/12/08 07:28:25;;;;;;;32.90;19.45;;;;;;;;;;4895886;29;20506;-82
2023/12/08 07:30:51;;;;;;;40.47;24.90;;;;;;;;;;4895327;29;20340;-78
2023/12/08 07:33:17;;;;;;;44.70;25.75;;;;;;;;;;4895192;29;20036;-80
2023/12/08 07:35:43;;;;;;;37.75;21.85;;;;;;;;;;4893534;29;20028;-78
2023/12/08 07:38:09;;;;;;;35.05;19.67;;;;;;;;;;4875216;29;20048;-81
2023/12/08 07:40:35;;;;;;;34.75;21.88;;;;;;;;;;4885369;29;20033;-78
2023/12/08 07:43:01;;;;;;;32.85;20.15;;;;;;;;;;4896376;29;20407;-78
2023/12/08 07:45:27;;;;;;;37.20;22.02;;;;;;;;;;4890914;29;20031;-78
2023/12/08 07:47:53;;;;;;;39.47;23.38;;;;;;;;;;4891784;29;20033;-78
2023/12/08 07:50:20;;;;;;;42.65;21.25;;;;;;;;;;4895741;29;20442;-78
2023/12/08 07:52:46;;;;;;;38.70;21.92;;;;;;;;;;4895525;29;20112;-79
2023/12/08 07:55:12;;;;;;;36.20;22.40;;;;;;;;;;4896150;29;20444;-80
2023/12/08 07:57:38;;;;;;;36.95;22.80;;;;;;;;;;4896353;29;20041;-80
2023/12/08 08:00:06;;;;;;;38.55;22.30;;;;;;;;;;4895629;29;20037;-79
2023/12/08 08:02:32;;;;;;;36.28;21.35;;;;;;;;;;4887593;29;20053;-80
2023/12/08 08:04:58;;;;;;;36.13;20.33;;;;;;;;;;4891051;29;20029;-81
2023/12/08 08:07:24;;;;;;;37.30;20.73;;;;;;;;;;4877748;29;20025;-78
2023/12/08 08:09:51;;;;;;;35.63;20.63;;;;;;;;;;4893598;29;20040;-76
2023/12/08 08:12:17;;;;;;;37.65;21.73;;;;;;;;;;4895643;29;20036;-73
2023/12/08 08:14:43;;;;;;;33.47;20.10;;;;;;;;;;4895494;29;20073;-77
2023/12/08 08:17:09;;;;;;;37.53;21.33;;;;;;;;;;4894211;29;20053;-74
2023/12/08 08:19:35;;;;;;;33.83;20.85;;;;;;;;;;4894281;29;20036;-75
2023/12/08 08:22:01;;;;;;;36.80;21.80;;;;;;;;;;4888126;29;20052;-76
2023/12/08 08:24:27;;;;;;;37.28;21.95;;;;;;;;;;4892501;29;20120;-76
2023/12/08 08:26:54;;;;;;;41.15;23.42;;;;;;;;;;4901025;29;20036;-75
2023/12/08 08:29:20;;;;;;;38.45;23.00;;;;;;;;;;4893028;29;20024;-76
2023/12/08 08:31:46;;;;;;;32.58;20.58;;;;;;;;;;4871871;29;20092;-77
2023/12/08 08:34:13;;;;;;;33.55;20.92;;;;;;;;;;4891564;29;20869;-73
2023/12/08 08:36:39;;;;;;;35.97;22.02;;;;;;;;;;4865282;29;20037;-76
2023/12/08 08:39:05;;;;;;;38.90;21.90;;;;;;;;;;4874779;29;20095;-76
2023/12/08 08:41:31;;;;;;;32.95;21.42;;;;;;;;;;4881711;29;20479;-76
2023/12/08 08:43:57;;;;;;;34.33;21.45;;;;;;;;;;4895080;29;20021;-75
2023/12/08 08:46:23;;;;;;;36.67;21.40;;;;;;;;;;4891825;29;20021;-75
2023/12/08 08:48:49;;;;;;;36.05;21.13;;;;;;;;;;4895521;29;20043;-76
2023/12/08 08:51:16;;;;;;;34.60;21.75;;;;;;;;;;4898533;29;20059;-75
2023/12/08 08:53:42;;;;;;;35.60;21.02;;;;;;;;;;4887709;29;20025;-74
2023/12/08 08:56:08;;;;;;;33.10;20.73;;;;;;;;;;4891369;29;20120;-74
2023/12/08 08:58:34;;;;;;;35.47;20.70;;;;;;;;;;4891449;29;20047;-76
2023/12/08 09:01:01;;;;;;;38.47;21.98;;;;;;;;;;4896318;29;20032;-75
2023/12/08 09:03:27;;;;;;;41.40;21.08;;;;;;;;;;4892744;29;20029;-78
2023/12/08 09:05:53;;;;;;;33.55;21.25;;;;;;;;;;4896836;29;20056;-75
2023/12/08 09:08:19;;;;;;;34.55;20.40;;;;;;;;;;4900975;29;20067;-78
2023/12/08 09:10:45;;;;;;;32.72;20.42;;;;;;;;;;4890106;29;20033;-74
2023/12/08 09:13:12;;;;;;;34.92;19.90;;;;;;;;;;4894028;29;20064;-74
2023/12/08 09:15:39;;;;;;;37.10;21.48;;;;;;;;;;4897413;29;20601;-73
2023/12/08 09:18:05;;;;;;;40.40;22.23;;;;;;;;;;4895110;29;20292;-74
2023/12/08 09:20:31;;;;;;;38.38;21.75;;;;;;;;;;4894048;29;20039;-74
2023/12/08 09:22:57;;;;;;;35.63;20.75;;;;;;;;;;4895678;29;20040;-75
2023/12/08 09:25:23;;;;;;;36.53;21.02;;;;;;;;;;4893004;29;20028;-75
2023/12/08 09:27:49;;;;;;;40.67;21.30;;;;;;;;;;4895912;29;20044;-75
2023/12/08 09:30:15;;;;;;;40.95;21.83;;;;;;;;;;4893905;29;20032;-76
2023/12/08 09:32:42;;;;;;;35.88;21.80;;;;;;;;;;4898955;29;20475;-75
2023/12/08 09:35:08;;;;;;;33.63;20.98;;;;;;;;;;4893650;29;20037;-75
2023/12/08 09:37:34;;;;;;;41.50;22.10;;;;;;;;;;4895454;29;20017;-74
2023/12/08 09:40:00;;;;;;;36.45;21.60;;;;;;;;;;4892438;29;20076;-76
2023/12/08 09:42:58;;;;;;;35.85;21.35;;;;;;;;;;4892413;29;20096;-74
2023/12/08 09:45:24;;;;;;;38.88;23.95;;;;;;;;;;4870425;29;20053;-74
2023/12/08 09:47:52;;;;;;;53.95;30.38;;;;;;;;;;4895444;29;20048;-74
2023/12/08 09:50:18;;;;;;;40.80;23.77;;;;;;;;;;4893032;29;20060;-76
2023/12/08 09:52:44;;;;;;;34.97;21.75;;;;;;;;;;4869848;29;20127;-75
2023/12/08 09:55:11;;;;;;;37.97;23.80;;;;;;;;;;4893302;29;20047;-74
2023/12/08 09:57:38;;;;;;;58.75;20.92;;;;;;;;;;4893311;29;20083;-79
2023/12/08 10:00:15;;;;;;;40.42;21.63;;;;;;;;;;4893442;29;20040;-75
2023/12/08 10:02:41;;;;;;;36.72;22.67;;;;;;;;;;4886755;29;20032;-76
2023/12/08 10:05:08;;;;;;;42.42;22.50;;;;;;;;;;4893709;29;20029;-75
2023/12/08 10:07:35;;;;;;;41.95;22.90;;;;;;;;;;4892660;29;20109;-75
2023/12/08 10:10:01;;;;;;;42.10;22.42;;;;;;;;;;4893858;29;20048;-75
2023/12/08 10:12:27;;;;;;;43.55;23.23;;;;;;;;;;4894350;29;20048;-75
2023/12/08 10:14:58;;;;;;;39.60;21.25;;;;;;;;;;4893672;29;20059;-75
2023/12/08 10:17:24;;;;;;;41.60;21.73;;;;;;;;;;4893287;29;20060;-78
2023/12/08 10:19:52;;;;;;;37.08;21.63;;;;;;;;;;4890830;29;20145;-72
2023/12/08 10:22:18;;;;;;;35.78;20.75;;;;;;;;;;4894681;29;20068;-75
2023/12/08 10:24:45;;;;;;;37.88;21.80;;;;;;;;;;4896755;29;20039;-74
2023/12/08 10:27:11;;;;;;;34.67;20.17;;;;;;;;;;4897428;29;20919;-74
2023/12/08 10:29:37;;;;;;;38.22;21.00;;;;;;;;;;4894507;29;20113;-74
2023/12/08 10:32:06;;;;;;;36.08;22.90;;;;;;;;;;4896936;29;20039;-75
2023/12/08 10:34:33;;;;;;;43.10;23.10;;;;;;;;;;4895042;29;20040;-73
2023/12/08 10:36:59;;;;;;;38.88;22.48;;;;;;;;;;4882926;29;20056;-74
2023/12/08 10:39:25;;;;;;;43.17;21.20;;;;;;;;;;4895948;29;20029;-74
2023/12/08 10:41:51;;;;;;;41.70;21.92;;;;;;;;;;4894387;29;20493;-74
2023/12/08 10:44:26;;;;;;;37.03;21.80;;;;;;;;;;4895532;29;20062;-74
2023/12/08 10:46:53;;;;;;;38.65;22.73;;;;;;;;;;4896618;29;20522;-73
2023/12/08 10:49:19;;;;;;;41.05;22.30;;;;;;;;;;4895338;29;20037;-75
2023/12/08 10:51:49;;;;;;;40.83;22.67;;;;;;;;;;4894039;29;20099;-76
2023/12/08 10:54:19;;;;;;;38.40;23.35;;;;;;;;;;4896057;29;20088;-74
2023/12/08 10:56:48;;;;;;;48.90;24.30;;;;;;;;;;4894387;29;20036;-72
2023/12/08 10:59:21;;;;;;;49.10;22.83;;;;;;;;;;4908383;29;20131;-74
2023/12/08 11:01:47;;;;;;;50.97;24.58;;;;;;;;;;4896501;29;20087;-73
2023/12/08 11:04:16;;;;;;;40.45;23.50;;;;;;;;;;4896782;29;20028;-74
2023/12/08 11:06:45;;;;;;;42.90;22.60;;;;;;;;;;4892659;29;20096;-73
2023/12/08 11:09:12;;;;;;;44.28;22.70;;;;;;;;;;4888742;29;20067;-73
2023/12/08 11:11:40;;;;;;;47.65;23.52;;;;;;;;;;4894524;29;20032;-74
2023/12/08 11:14:10;;;;;;;45.92;23.50;;;;;;;;;;4897090;29;20117;-71
2023/12/08 11:16:40;;;;;;;41.47;23.33;;;;;;;;;;4894710;29;20041;-74
2023/12/08 11:19:07;;;;;;;48.55;24.50;;;;;;;;;;4891519;29;20043;-73
2023/12/08 11:21:33;;;;;;;51.63;25.63;;;;;;;;;;4893283;29;20028;-73
2023/12/08 11:23:59;;;;;;;51.65;26.20;;;;;;;;;;4895670;29;20036;-73
2023/12/08 11:26:38;;;;;;;50.28;26.75;;;;;;;;;;4889828;29;20070;-78
2023/12/08 11:29:23;;;;;;;51.67;25.13;;;;;;;;;;4895314;29;20115;-72
2023/12/08 11:31:49;;;;;;;48.50;24.27;;;;;;;;;;4894001;29;20121;-80
2023/12/08 11:34:20;;;;;;;60.33;31.58;;;;;;;;;;4892967;29;20024;-75
2023/12/08 11:36:47;;;;;;;51.80;25.23;;;;;;;;;;4894136;29;20112;-74
2023/12/08 11:39:42;;;;;;;53.08;24.30;;;;;;;;;;4896246;29;20037;-73
2023/12/08 11:42:09;;;;;;;51.97;24.00;;;;;;;;;;4890296;29;20029;-72
2023/12/08 11:44:37;;;;;;;48.38;24.50;;;;;;;;;;4896003;29;20136;-73
2023/12/08 11:47:05;;;;;;;53.05;25.02;;;;;;;;;;4904050;29;20052;-72
2023/12/08 11:49:31;;;;;;;45.38;24.02;;;;;;;;;;4897005;29;20047;-72
2023/12/08 11:52:09;;;;;;;47.85;24.65;;;;;;;;;;4896523;29;20037;-71
2023/12/08 11:54:56;;;;;;;52.03;24.42;;;;;;;;;;4891125;29;20036;-71
2023/12/08 11:57:22;;;;;;;50.67;25.23;;;;;;;;;;4893526;29;20032;-73
2023/12/08 11:59:50;;;;;;;47.53;23.60;;;;;;;;;;4894401;29;20040;-74
2023/12/08 12:02:16;;;;;;;59.85;25.73;;;;;;;;;;4893595;29;20040;-72
2023/12/08 12:04:42;;;;;;;57.63;26.08;;;;;;;;;;4894243;29;20040;-73
2023/12/08 12:07:08;;;;;;;48.67;24.70;;;;;;;;;;4896228;29;20025;-72
2023/12/08 12:09:35;;;;;;;54.90;26.52;;;;;;;;;;4895253;29;20424;-73
2023/12/08 12:12:09;;;;;;;49.13;24.90;;;;;;;;;;4895308;29;20490;-72
2023/12/08 12:14:36;;;;;;;58.30;27.13;;;;;;;;;;4895057;29;20043;-72
2023/12/08 12:17:03;;;;;;;56.72;24.08;;;;;;;;;;4898195;29;20388;-72
2023/12/08 12:19:30;;;;;;;53.20;25.38;;;;;;;;;;4893059;29;20588;-72
2023/12/08 12:21:56;;;;;;;58.42;25.52;;;;;;;;;;4896532;29;20043;-75
2023/12/08 12:24:22;;;;;;;53.97;25.83;;;;;;;;;;4894605;29;20032;-72
2023/12/08 12:26:49;;;;;;;61.90;27.23;;;;;;;;;;4906864;29;20032;-73
2023/12/08 12:29:16;;;;;;;104.53;29.75;;;;;;;;;;4893889;29;20036;-72
2023/12/08 12:31:42;;;;;;;51.40;24.42;;;;;;;;;;4895581;29;20036;-72
2023/12/08 12:34:08;;;;;;;46.80;25.83;;;;;;;;;;4901068;29;20028;-73
2023/12/08 12:36:34;;;;;;;51.40;23.85;;;;;;;;;;4895400;29;20031;-72
2023/12/08 12:39:00;;;;;;;56.13;25.92;;;;;;;;;;4895511;29;20029;-72
2023/12/08 12:41:27;;;;;;;82.35;27.65;;;;;;;;;;4895167;29;20036;-72
2023/12/08 12:43:57;;;;;;;53.83;25.00;;;;;;;;;;4899539;29;20100;-73
2023/12/08 12:46:25;;;;;;;54.15;25.10;;;;;;;;;;4894452;29;20037;-73
2023/12/08 12:48:52;;;;;;;53.90;24.38;;;;;;;;;;4909063;29;20032;-74
2023/12/08 12:51:31;;;;;;;52.83;25.10;;;;;;;;;;4895857;29;20028;-71
2023/12/08 12:53:57;;;;;;;55.88;23.98;;;;;;;;;;4892528;29;20037;-72
2023/12/08 12:56:23;;;;;;;43.15;22.52;;;;;;;;;;4894762;29;20036;-75
2023/12/08 12:59:12;;;;;;;49.15;24.38;;;;;;;;;;4895821;29;20036;-71
2023/12/08 13:01:38;;;;;;;68.45;25.35;;;;;;;;;;4895170;29;20040;-74
2023/12/08 13:04:04;;;;;;;50.22;25.83;;;;;;;;;;4894804;29;20115;-75
2023/12/08 13:06:32;;;;;;;48.25;26.05;;;;;;;;;;4895158;29;20024;-74
2023/12/08 13:09:02;;;;;;;48.90;25.40;;;;;;;;;;4884705;29;20028;-73
2023/12/08 13:11:29;;;;;;;46.67;24.85;;;;;;;;;;4892854;29;20036;-74
2023/12/08 13:13:56;;;;;;;55.65;25.73;;;;;;;;;;4892297;29;20041;-75
2023/12/08 13:16:22;;;;;;;44.60;22.77;;;;;;;;;;4889298;29;20081;-75
2023/12/08 13:18:49;;;;;;;46.15;23.63;;;;;;;;;;4894399;29;20032;-75
2023/12/08 13:21:15;;;;;;;47.17;23.42;;;;;;;;;;4894144;29;20033;-75
2023/12/08 13:23:42;;;;;;;47.20;25.13;;;;;;;;;;4895977;29;20042;-75
2023/12/08 13:26:08;;;;;;;46.20;23.92;;;;;;;;;;4900695;29;20139;-77
2023/12/08 13:28:34;;;;;;;48.35;24.83;;;;;;;;;;4896952;29;20034;-74
2023/12/08 13:31:00;;;;;;;44.30;23.70;;;;;;;;;;4893253;29;20564;-74
2023/12/08 13:33:26;;;;;;;49.90;25.52;;;;;;;;;;4892298;29;20893;-75
2023/12/08 13:35:53;;;;;;;63.00;34.38;;;;;;;;;;4895100;29;20099;-77
2023/12/08 13:38:19;;;;;;;52.00;25.58;;;;;;;;;;4891459;29;20060;-72
2023/12/08 13:40:45;;;;;;;47.95;21.40;;;;;;;;;;4893452;29;20032;-77
2023/12/08 13:43:11;;;;;;;43.75;22.27;;;;;;;;;;4891414;29;20403;-75
2023/12/08 13:45:37;;;;;;;46.20;22.83;;;;;;;;;;4894362;29;20024;-74
2023/12/08 13:48:04;;;;;;;49.42;24.30;;;;;;;;;;4893074;29;20429;-75
2023/12/08 13:50:31;;;;;;;43.10;22.80;;;;;;;;;;4893375;29;20025;-77
2023/12/08 13:52:57;;;;;;;49.03;23.67;;;;;;;;;;4894758;29;20036;-75
2023/12/08 13:55:23;;;;;;;47.95;24.70;;;;;;;;;;4887482;29;20036;-74
2023/12/08 13:57:49;;;;;;;64.43;28.75;;;;;;;;;;4888162;29;20064;-75
2023/12/08 14:00:18;;;;;;;145.15;53.15;;;;;;;;;;4895548;29;20037;-74
2023/12/08 14:02:45;;;;;;;60.28;27.40;;;;;;;;;;4896781;29;20115;-73
2023/12/08 14:05:11;;;;;;;56.15;24.33;;;;;;;;;;4889829;29;20037;-76
2023/12/08 14:07:38;;;;;;;46.42;24.13;;;;;;;;;;4889208;29;20025;-76
2023/12/08 14:10:05;;;;;;;56.83;23.55;;;;;;;;;;4878931;29;20045;-75
2023/12/08 14:12:31;;;;;;;68.13;25.45;;;;;;;;;;4886637;29;20028;-73
2023/12/08 14:14:57;;;;;;;47.08;24.52;;;;;;;;;;4891654;29;20045;-73
2023/12/08 14:17:23;;;;;;;69.65;26.33;;;;;;;;;;4887931;29;20040;-76